createdAt,value
2017-11-17T00:00:33.852Z,1013.15
2017-11-17T00:01:14.426Z,1013.17
2017-11-17T00:01:54.979Z,1013.19
2017-11-17T00:02:35.508Z,1013.13
2017-11-17T00:03:16.084Z,1013.15
2017-11-17T00:03:56.616Z,1013.21
2017-11-17T00:04:37.155Z,1013.15
2017-11-17T00:05:17.715Z,1013.16
2017-11-17T00:05:58.221Z,1013.23
2017-11-17T00:06:38.767Z,1013.2
2017-11-17T00:07:19.318Z,1013.15
2017-11-17T00:07:59.858Z,1013.19
2017-11-17T00:08:40.387Z,1013.18
2017-11-17T00:09:20.922Z,1013.19
2017-11-17T00:10:01.519Z,1013.2
2017-11-17T00:10:41.967Z,1013.19
2017-11-17T00:11:22.529Z,1013.12
2017-11-17T00:12:03.051Z,1013.19
2017-11-17T00:12:43.591Z,1013.18
2017-11-17T00:13:24.148Z,1013.17
2017-11-17T00:14:04.725Z,1013.16
2017-11-17T00:14:45.241Z,1013.1
2017-11-17T00:15:25.784Z,1013.1
2017-11-17T00:16:06.330Z,1013.12
2017-11-17T00:16:46.927Z,1013.1
2017-11-17T00:17:27.422Z,1013.04
2017-11-17T00:18:07.949Z,1013.07
2017-11-17T00:18:48.481Z,1013.06
2017-11-17T00:19:29.162Z,1013.05
2017-11-17T00:20:09.638Z,1013.15
2017-11-17T00:20:50.217Z,1013.16
2017-11-17T00:21:30.747Z,1013.2
2017-11-17T00:22:11.287Z,1013.13
2017-11-17T00:22:51.832Z,1013.15
2017-11-17T00:23:32.336Z,1013.19
2017-11-17T00:24:12.879Z,1013.12
2017-11-17T00:24:53.447Z,1013.18
2017-11-17T00:25:33.941Z,1013.21
2017-11-17T00:26:14.468Z,1013.22
2017-11-17T00:26:55.041Z,1013.17
2017-11-17T00:27:35.579Z,1013.24
2017-11-17T00:28:16.131Z,1013.24
2017-11-17T00:28:56.662Z,1013.19
2017-11-17T00:29:37.157Z,1013.2
2017-11-17T00:30:17.689Z,1013.16
2017-11-17T00:30:58.267Z,1013.15
2017-11-17T00:31:38.781Z,1013.14
2017-11-17T00:32:19.331Z,1013.15
2017-11-17T00:32:59.896Z,1013.15
2017-11-17T00:33:40.407Z,1013.17
2017-11-17T00:34:20.964Z,1013.21
2017-11-17T00:35:01.534Z,1013.16
2017-11-17T00:35:42.088Z,1013.19
2017-11-17T00:36:22.643Z,1013.2
2017-11-17T00:37:03.224Z,1013.19
2017-11-17T00:37:43.752Z,1013.2
2017-11-17T00:38:24.269Z,1013.18
2017-11-17T00:39:04.812Z,1013.17
2017-11-17T00:39:45.366Z,1013.17
2017-11-17T00:40:25.853Z,1013.19
2017-11-17T00:41:06.406Z,1013.17
2017-11-17T00:41:46.958Z,1013.16
2017-11-17T00:42:27.481Z,1013.16
2017-11-17T00:43:08.039Z,1013.14
2017-11-17T00:43:48.531Z,1013.15
2017-11-17T00:44:29.081Z,1013.17
2017-11-17T00:45:09.664Z,1013.11
2017-11-17T00:45:50.166Z,1013.12
2017-11-17T00:46:30.689Z,1013.1
2017-11-17T00:47:11.252Z,1013.1
2017-11-17T00:47:51.821Z,1013.09
2017-11-17T00:48:32.302Z,1013.08
2017-11-17T00:49:12.842Z,1013.08
2017-11-17T00:49:53.418Z,1013.07
2017-11-17T00:50:33.987Z,1013.12
2017-11-17T00:51:14.477Z,1013.14
2017-11-17T00:51:55.036Z,1013.14
2017-11-17T00:52:35.502Z,1013.1
2017-11-17T00:53:16.026Z,1013.12
2017-11-17T00:53:56.560Z,1013.06
2017-11-17T00:54:37.079Z,1013.12
2017-11-17T00:55:17.623Z,1013.1
2017-11-17T00:55:58.160Z,1013.1
2017-11-17T00:56:38.719Z,1013.13
2017-11-17T00:57:19.225Z,1013.18
2017-11-17T00:57:59.754Z,1013.15
2017-11-17T00:58:40.308Z,1013.16
2017-11-17T00:59:20.816Z,1013.17
2017-11-17T01:00:01.336Z,1013.11
2017-11-17T01:00:41.860Z,1013.1
2017-11-17T01:01:22.531Z,1013.09
2017-11-17T01:02:03.056Z,1013.13
2017-11-17T01:02:43.622Z,1013.15
2017-11-17T01:03:24.111Z,1013.17
2017-11-17T01:04:04.664Z,1013.14
2017-11-17T01:04:45.198Z,1013.17
2017-11-17T01:05:25.753Z,1013.12
2017-11-17T01:06:06.242Z,1013.14
2017-11-17T01:06:46.762Z,1013.16
2017-11-17T01:07:27.313Z,1013.13
2017-11-17T01:08:07.846Z,1013.17
2017-11-17T01:08:48.489Z,1013.16
2017-11-17T01:09:29.016Z,1013.19
2017-11-17T01:10:09.565Z,1013.16
2017-11-17T01:10:50.131Z,1013.2
2017-11-17T01:11:30.615Z,1013.19
2017-11-17T01:12:11.122Z,1013.19
2017-11-17T01:12:51.678Z,1013.21
2017-11-17T01:13:32.190Z,1013.24
2017-11-17T01:14:12.717Z,1013.27
2017-11-17T01:14:53.314Z,1013.26
2017-11-17T01:15:33.892Z,1013.23
2017-11-17T01:16:14.398Z,1013.22
2017-11-17T01:16:54.877Z,1013.2
2017-11-17T01:17:35.415Z,1013.22
2017-11-17T01:18:15.976Z,1013.26
2017-11-17T01:18:56.539Z,1013.25
2017-11-17T01:19:37.092Z,1013.2
2017-11-17T01:20:17.701Z,1013.19
2017-11-17T01:20:58.262Z,1013.17
2017-11-17T01:21:38.828Z,1013.17
2017-11-17T01:22:19.379Z,1013.14
2017-11-17T01:22:59.894Z,1013.19
2017-11-17T01:23:40.421Z,1013.15
2017-11-17T01:24:20.940Z,1013.12
2017-11-17T01:25:01.482Z,1013.17
2017-11-17T01:25:41.990Z,1013.11
2017-11-17T01:26:22.527Z,1013.11
2017-11-17T01:27:03.041Z,1013.08
2017-11-17T01:27:43.588Z,1013.11
2017-11-17T01:28:24.168Z,1013.08
2017-11-17T01:29:04.681Z,1013.13
2017-11-17T01:29:45.195Z,1013.13
2017-11-17T01:30:25.753Z,1013.11
2017-11-17T01:31:06.324Z,1013.15
2017-11-17T01:31:46.853Z,1013.13
2017-11-17T01:32:27.356Z,1013.16
2017-11-17T01:33:07.888Z,1013.15
2017-11-17T01:33:48.441Z,1013.17
2017-11-17T01:34:28.991Z,1013.15
2017-11-17T01:35:09.508Z,1013.17
2017-11-17T01:35:50.054Z,1013.14
2017-11-17T01:36:30.605Z,1013.17
2017-11-17T01:37:11.162Z,1013.13
2017-11-17T01:37:51.710Z,1013.13
2017-11-17T01:38:32.259Z,1013.14
2017-11-17T01:39:12.746Z,1013.15
2017-11-17T01:39:53.315Z,1013.16
2017-11-17T01:40:33.841Z,1013.1
2017-11-17T01:41:14.402Z,1013.14
2017-11-17T01:41:54.951Z,1013.11
2017-11-17T01:42:35.469Z,1013.14
2017-11-17T01:43:16.023Z,1013.14
2017-11-17T01:43:56.587Z,1013.16
2017-11-17T01:44:37.142Z,1013.12
2017-11-17T01:45:17.691Z,1013.11
2017-11-17T01:45:58.221Z,1013.04
2017-11-17T01:46:38.795Z,1013.09
2017-11-17T01:47:19.248Z,1013.06
2017-11-17T01:47:59.797Z,1013.06
2017-11-17T01:48:40.347Z,1013.09
2017-11-17T01:49:20.854Z,1013.11
2017-11-17T01:50:01.387Z,1013.04
2017-11-17T01:50:41.882Z,1013.04
2017-11-17T01:51:22.416Z,1013.04
2017-11-17T01:52:02.952Z,1013.02
2017-11-17T01:52:43.479Z,1012.96
2017-11-17T01:53:23.986Z,1013.02
2017-11-17T01:54:04.541Z,1013.01
2017-11-17T01:54:45.156Z,1012.97
2017-11-17T01:55:25.712Z,1012.97
2017-11-17T01:56:06.256Z,1012.96
2017-11-17T01:56:46.773Z,1013
2017-11-17T01:57:27.318Z,1013
2017-11-17T01:58:07.845Z,1012.97
2017-11-17T01:58:48.378Z,1012.98
2017-11-17T01:59:28.912Z,1012.95
2017-11-17T02:00:09.402Z,1012.96
2017-11-17T02:00:49.943Z,1012.92
2017-11-17T02:01:30.456Z,1012.96
2017-11-17T02:02:10.994Z,1012.95
2017-11-17T02:02:51.538Z,1012.89
2017-11-17T02:03:32.087Z,1012.89
2017-11-17T02:04:12.639Z,1012.9
2017-11-17T02:04:53.189Z,1012.92
2017-11-17T02:05:33.743Z,1012.89
2017-11-17T02:06:14.300Z,1012.89
2017-11-17T02:06:54.835Z,1012.92
2017-11-17T02:07:35.421Z,1012.88
2017-11-17T02:08:15.943Z,1012.88
2017-11-17T02:08:56.455Z,1012.88
2017-11-17T02:09:36.973Z,1012.9
2017-11-17T02:10:17.522Z,1012.93
2017-11-17T02:10:58.115Z,1012.99
2017-11-17T02:11:38.701Z,1012.94
2017-11-17T02:12:19.297Z,1012.95
2017-11-17T02:12:59.852Z,1012.97
2017-11-17T02:13:40.307Z,1012.95
2017-11-17T02:14:20.858Z,1012.96
2017-11-17T02:15:01.406Z,1012.97
2017-11-17T02:15:41.946Z,1012.97
2017-11-17T02:16:22.461Z,1012.94
2017-11-17T02:17:03.030Z,1012.91
2017-11-17T02:17:43.590Z,1012.92
2017-11-17T02:18:24.122Z,1012.85
2017-11-17T02:19:04.683Z,1012.9
2017-11-17T02:19:45.256Z,1012.88
2017-11-17T02:20:25.760Z,1012.86
2017-11-17T02:21:06.332Z,1012.87
2017-11-17T02:21:46.856Z,1012.86
2017-11-17T02:22:27.398Z,1012.92
2017-11-17T02:23:07.905Z,1012.88
2017-11-17T02:23:48.420Z,1012.88
2017-11-17T02:24:28.964Z,1012.94
2017-11-17T02:25:09.477Z,1012.92
2017-11-17T02:25:49.994Z,1012.92
2017-11-17T02:26:30.525Z,1012.89
2017-11-17T02:27:11.081Z,1012.91
2017-11-17T02:27:51.624Z,1012.86
2017-11-17T02:28:32.113Z,1012.91
2017-11-17T02:29:12.635Z,1012.9
2017-11-17T02:29:53.229Z,1012.88
2017-11-17T02:30:33.771Z,1012.87
2017-11-17T02:31:14.299Z,1012.88
2017-11-17T02:31:54.823Z,1012.9
2017-11-17T02:32:35.390Z,1012.87
2017-11-17T02:33:15.912Z,1012.87
2017-11-17T02:33:56.569Z,1012.86
2017-11-17T02:34:37.094Z,1012.86
2017-11-17T02:35:17.666Z,1012.86
2017-11-17T02:35:58.174Z,1012.88
2017-11-17T02:36:38.702Z,1012.87
2017-11-17T02:37:19.251Z,1012.89
2017-11-17T02:37:59.776Z,1012.88
2017-11-17T02:38:40.359Z,1012.9
2017-11-17T02:39:20.869Z,1012.89
2017-11-17T02:40:01.363Z,1012.93
2017-11-17T02:40:41.906Z,1012.92
2017-11-17T02:41:22.474Z,1012.92
2017-11-17T02:42:03.028Z,1012.9
2017-11-17T02:42:43.549Z,1012.94
2017-11-17T02:43:24.109Z,1012.93
2017-11-17T02:44:04.652Z,1012.92
2017-11-17T02:44:45.200Z,1012.93
2017-11-17T02:45:25.746Z,1012.95
2017-11-17T02:46:06.303Z,1012.93
2017-11-17T02:46:46.859Z,1012.98
2017-11-17T02:47:27.434Z,1012.94
2017-11-17T02:48:07.950Z,1012.98
2017-11-17T02:48:48.474Z,1012.97
2017-11-17T02:49:28.984Z,1012.96
2017-11-17T02:50:09.514Z,1012.94
2017-11-17T02:50:50.068Z,1012.94
2017-11-17T02:51:30.584Z,1013
2017-11-17T02:52:11.146Z,1013
2017-11-17T02:52:51.634Z,1013.01
2017-11-17T02:53:32.198Z,1012.99
2017-11-17T02:54:12.751Z,1013.02
2017-11-17T02:54:53.280Z,1012.99
2017-11-17T02:55:33.818Z,1012.98
2017-11-17T02:56:14.375Z,1013.02
2017-11-17T02:56:54.911Z,1013.01
2017-11-17T02:57:35.440Z,1012.96
2017-11-17T02:58:15.971Z,1012.98
2017-11-17T02:58:56.533Z,1013.04
2017-11-17T02:59:37.104Z,1012.97
2017-11-17T03:00:17.657Z,1012.99
2017-11-17T03:00:58.192Z,1013
2017-11-17T03:01:38.675Z,1012.98
2017-11-17T03:02:19.238Z,1013.01
2017-11-17T03:02:59.744Z,1012.98
2017-11-17T03:03:40.271Z,1013.02
2017-11-17T03:04:20.815Z,1013.08
2017-11-17T03:05:01.304Z,1013.08
2017-11-17T03:05:41.826Z,1013.09
2017-11-17T03:06:22.361Z,1013.09
2017-11-17T03:07:02.890Z,1013.1
2017-11-17T03:07:43.437Z,1013.07
2017-11-17T03:08:23.980Z,1013.06
2017-11-17T03:09:04.498Z,1013.12
2017-11-17T03:09:45.064Z,1013.1
2017-11-17T03:10:25.593Z,1013.12
2017-11-17T03:11:06.087Z,1013.13
2017-11-17T03:11:46.619Z,1013.14
2017-11-17T03:12:27.158Z,1013.16
2017-11-17T03:13:07.696Z,1013.15
2017-11-17T03:13:48.217Z,1013.19
2017-11-17T03:14:28.752Z,1013.15
2017-11-17T03:15:09.270Z,1013.24
2017-11-17T03:15:49.812Z,1013.16
2017-11-17T03:16:30.367Z,1013.25
2017-11-17T03:17:10.888Z,1013.21
2017-11-17T03:17:51.436Z,1013.22
2017-11-17T03:18:31.973Z,1013.22
2017-11-17T03:19:12.485Z,1013.18
2017-11-17T03:19:53.041Z,1013.17
2017-11-17T03:20:33.574Z,1013.13
2017-11-17T03:21:14.141Z,1013.16
2017-11-17T03:21:54.695Z,1013.18
2017-11-17T03:22:35.221Z,1013.17
2017-11-17T03:23:15.786Z,1013.13
2017-11-17T03:23:56.290Z,1013.13
2017-11-17T03:24:36.788Z,1013.16
2017-11-17T03:25:17.361Z,1013.18
2017-11-17T03:25:57.936Z,1013.17
2017-11-17T03:26:38.447Z,1013.18
2017-11-17T03:27:19.048Z,1013.18
2017-11-17T03:27:59.651Z,1013.21
2017-11-17T03:28:40.970Z,1013.19
2017-11-17T03:29:21.504Z,1013.24
2017-11-17T03:30:02.083Z,1013.2
2017-11-17T03:30:42.611Z,1013.2
2017-11-17T03:31:23.183Z,1013.26
2017-11-17T03:32:03.652Z,1013.18
2017-11-17T03:32:44.197Z,1013.17
2017-11-17T03:33:24.772Z,1013.22
2017-11-17T03:34:05.271Z,1013.17
2017-11-17T03:34:45.816Z,1013.18
2017-11-17T03:35:26.378Z,1013.17
2017-11-17T03:36:06.877Z,1013.12
2017-11-17T03:36:47.404Z,1013.13
2017-11-17T03:37:27.944Z,1013.13
2017-11-17T03:38:08.446Z,1013.16
2017-11-17T03:38:49.028Z,1013.16
2017-11-17T03:39:29.575Z,1013.14
2017-11-17T03:40:10.052Z,1013.09
2017-11-17T03:40:50.600Z,1013.13
2017-11-17T03:41:31.125Z,1013.14
2017-11-17T03:42:11.617Z,1013.16
2017-11-17T03:42:52.146Z,1013.12
2017-11-17T03:43:32.709Z,1013.14
2017-11-17T03:44:13.230Z,1013.15
2017-11-17T03:44:53.751Z,1013.17
2017-11-17T03:45:34.312Z,1013.17
2017-11-17T03:46:14.808Z,1013.18
2017-11-17T03:46:55.332Z,1013.17
2017-11-17T03:47:35.862Z,1013.16
2017-11-17T03:48:16.442Z,1013.19
2017-11-17T03:48:56.920Z,1013.2
2017-11-17T03:49:37.439Z,1013.16
2017-11-17T03:50:18.011Z,1013.23
2017-11-17T03:50:58.560Z,1013.21
2017-11-17T03:51:39.070Z,1013.24
2017-11-17T03:52:19.594Z,1013.23
2017-11-17T03:53:00.170Z,1013.27
2017-11-17T03:53:40.697Z,1013.22
2017-11-17T03:54:21.182Z,1013.24
2017-11-17T03:55:01.731Z,1013.2
2017-11-17T03:55:42.226Z,1013.23
2017-11-17T03:56:22.783Z,1013.22
2017-11-17T03:57:03.338Z,1013.25
2017-11-17T03:57:43.852Z,1013.23
2017-11-17T03:58:24.403Z,1013.26
2017-11-17T03:59:04.933Z,1013.28
2017-11-17T03:59:45.470Z,1013.32
2017-11-17T04:00:25.985Z,1013.33
2017-11-17T04:01:06.548Z,1013.29
2017-11-17T04:01:47.076Z,1013.27
2017-11-17T04:02:27.595Z,1013.29
2017-11-17T04:03:08.143Z,1013.24
2017-11-17T04:03:48.676Z,1013.25
2017-11-17T04:04:29.198Z,1013.21
2017-11-17T04:05:09.748Z,1013.3
2017-11-17T04:05:50.286Z,1013.29
2017-11-17T04:06:30.899Z,1013.25
2017-11-17T04:07:11.429Z,1013.27
2017-11-17T04:07:51.970Z,1013.25
2017-11-17T04:08:32.531Z,1013.22
2017-11-17T04:09:13.099Z,1013.22
2017-11-17T04:09:53.595Z,1013.2
2017-11-17T04:10:34.242Z,1013.19
2017-11-17T04:11:14.800Z,1013.17
2017-11-17T04:11:55.387Z,1013.15
2017-11-17T04:12:35.950Z,1013.16
2017-11-17T04:13:16.460Z,1013.12
2017-11-17T04:13:56.991Z,1013.11
2017-11-17T04:14:37.540Z,1013.1
2017-11-17T04:15:18.059Z,1013.09
2017-11-17T04:15:58.566Z,1013.07
2017-11-17T04:16:39.113Z,1013.12
2017-11-17T04:17:19.644Z,1013.06
2017-11-17T04:18:00.166Z,1013.07
2017-11-17T04:18:40.714Z,1013.05
2017-11-17T04:19:21.274Z,1013.04
2017-11-17T04:20:01.804Z,1013.08
2017-11-17T04:20:42.343Z,1013.05
2017-11-17T04:21:22.889Z,1013
2017-11-17T04:22:03.419Z,1013.03
2017-11-17T04:22:43.918Z,1012.98
2017-11-17T04:23:24.495Z,1012.98
2017-11-17T04:24:05.058Z,1012.99
2017-11-17T04:24:45.578Z,1012.96
2017-11-17T04:25:26.090Z,1012.96
2017-11-17T04:26:06.670Z,1012.96
2017-11-17T04:26:47.177Z,1012.93
2017-11-17T04:27:27.709Z,1012.99
2017-11-17T04:28:08.262Z,1013.02
2017-11-17T04:28:48.766Z,1012.96
2017-11-17T04:29:29.285Z,1012.95
2017-11-17T04:30:09.769Z,1012.95
2017-11-17T04:30:50.320Z,1012.94
2017-11-17T04:31:30.835Z,1012.94
2017-11-17T04:32:11.380Z,1012.96
2017-11-17T04:32:52.057Z,1012.93
2017-11-17T04:33:32.525Z,1012.99
2017-11-17T04:34:13.064Z,1012.99
2017-11-17T04:34:53.571Z,1012.93
2017-11-17T04:35:34.100Z,1012.9
2017-11-17T04:36:14.620Z,1012.93
2017-11-17T04:36:55.158Z,1012.88
2017-11-17T04:37:35.682Z,1012.92
2017-11-17T04:38:16.255Z,1012.94
2017-11-17T04:38:56.745Z,1012.85
2017-11-17T04:39:37.230Z,1012.99
2017-11-17T04:40:17.788Z,1012.98
2017-11-17T04:40:58.307Z,1012.91
2017-11-17T04:41:38.810Z,1012.98
2017-11-17T04:42:19.365Z,1013
2017-11-17T04:42:59.892Z,1013.01
2017-11-17T04:43:40.465Z,1012.99
2017-11-17T04:44:20.982Z,1012.94
2017-11-17T04:45:01.474Z,1012.97
2017-11-17T04:45:42.045Z,1012.98
2017-11-17T04:46:22.544Z,1012.98
2017-11-17T04:47:03.126Z,1012.96
2017-11-17T04:47:43.647Z,1012.98
2017-11-17T04:48:24.297Z,1013.02
2017-11-17T04:49:04.822Z,1013.04
2017-11-17T04:49:45.349Z,1013.01
2017-11-17T04:50:25.899Z,1013.03
2017-11-17T04:51:06.448Z,1013.01
2017-11-17T04:51:46.965Z,1013.05
2017-11-17T04:52:27.479Z,1013.06
2017-11-17T04:53:08.070Z,1013.05
2017-11-17T04:53:48.598Z,1013.09
2017-11-17T04:54:29.131Z,1013.09
2017-11-17T04:55:09.644Z,1013.12
2017-11-17T04:55:50.246Z,1013.1
2017-11-17T04:56:30.804Z,1013.14
2017-11-17T04:57:11.359Z,1013.11
2017-11-17T04:57:51.888Z,1013.1
2017-11-17T04:58:32.430Z,1013.04
2017-11-17T04:59:12.952Z,1013.1
2017-11-17T04:59:53.506Z,1013.12
2017-11-17T05:00:34.083Z,1013.1
2017-11-17T05:01:14.599Z,1013.07
2017-11-17T05:01:55.116Z,1013.09
2017-11-17T05:02:35.647Z,1013.11
2017-11-17T05:03:16.169Z,1013.06
2017-11-17T05:03:56.698Z,1013.06
2017-11-17T05:04:37.239Z,1013.07
2017-11-17T05:05:17.781Z,1013
2017-11-17T05:05:58.309Z,1013.06
2017-11-17T05:06:38.946Z,1013.06
2017-11-17T05:07:19.485Z,1013.07
2017-11-17T05:07:59.980Z,1013.05
2017-11-17T05:08:40.531Z,1013.04
2017-11-17T05:09:21.076Z,1013.11
2017-11-17T05:10:01.662Z,1013.1
2017-11-17T05:10:42.337Z,1013.14
2017-11-17T05:11:22.909Z,1013.07
2017-11-17T05:12:03.445Z,1013.16
2017-11-17T05:12:44.005Z,1013.13
2017-11-17T05:13:24.493Z,1013.12
2017-11-17T05:14:05.078Z,1013.18
2017-11-17T05:14:45.632Z,1013.2
2017-11-17T05:15:26.160Z,1013.22
2017-11-17T05:16:06.673Z,1013.25
2017-11-17T05:16:47.270Z,1013.27
2017-11-17T05:17:27.750Z,1013.25
2017-11-17T05:18:08.280Z,1013.25
2017-11-17T05:18:48.798Z,1013.26
2017-11-17T05:19:29.410Z,1013.33
2017-11-17T05:20:09.977Z,1013.26
2017-11-17T05:20:50.494Z,1013.31
2017-11-17T05:21:31.074Z,1013.29
2017-11-17T05:22:11.712Z,1013.32
2017-11-17T05:22:52.216Z,1013.34
2017-11-17T05:23:32.734Z,1013.36
2017-11-17T05:24:13.294Z,1013.36
2017-11-17T05:24:53.812Z,1013.4
2017-11-17T05:25:34.359Z,1013.38
2017-11-17T05:26:14.917Z,1013.37
2017-11-17T05:26:55.465Z,1013.35
2017-11-17T05:27:35.962Z,1013.36
2017-11-17T05:28:16.492Z,1013.34
2017-11-17T05:28:58.027Z,1013.37
2017-11-17T05:29:38.565Z,1013.34
2017-11-17T05:30:19.122Z,1013.37
2017-11-17T05:30:59.640Z,1013.37
2017-11-17T05:31:40.238Z,1013.39
2017-11-17T05:32:20.790Z,1013.4
2017-11-17T05:33:01.288Z,1013.42
2017-11-17T05:33:42.155Z,1013.37
2017-11-17T05:34:22.709Z,1013.41
2017-11-17T05:35:03.206Z,1013.36
2017-11-17T05:35:43.744Z,1013.37
2017-11-17T05:36:24.220Z,1013.36
2017-11-17T05:37:04.799Z,1013.39
2017-11-17T05:37:45.353Z,1013.38
2017-11-17T05:38:25.931Z,1013.39
2017-11-17T05:39:06.454Z,1013.38
2017-11-17T05:39:47.034Z,1013.45
2017-11-17T05:40:27.584Z,1013.42
2017-11-17T05:41:08.093Z,1013.41
2017-11-17T05:41:48.762Z,1013.43
2017-11-17T05:42:29.236Z,1013.4
2017-11-17T05:43:09.820Z,1013.41
2017-11-17T05:43:51.217Z,1013.37
2017-11-17T05:44:31.797Z,1013.38
2017-11-17T05:45:12.363Z,1013.38
2017-11-17T05:45:52.885Z,1013.4
2017-11-17T05:46:33.414Z,1013.37
2017-11-17T05:47:13.944Z,1013.36
2017-11-17T05:47:54.504Z,1013.41
2017-11-17T05:48:35.049Z,1013.41
2017-11-17T05:49:15.672Z,1013.4
2017-11-17T05:49:56.208Z,1013.41
2017-11-17T05:50:36.748Z,1013.44
2017-11-17T05:51:17.303Z,1013.43
2017-11-17T05:51:57.809Z,1013.4
2017-11-17T05:52:38.370Z,1013.45
2017-11-17T05:53:18.925Z,1013.42
2017-11-17T05:53:59.457Z,1013.39
2017-11-17T05:54:40.037Z,1013.45
2017-11-17T05:55:20.560Z,1013.38
2017-11-17T05:56:01.091Z,1013.39
2017-11-17T05:56:41.663Z,1013.45
2017-11-17T05:57:22.206Z,1013.43
2017-11-17T05:58:02.773Z,1013.44
2017-11-17T05:58:43.266Z,1013.43
2017-11-17T05:59:23.849Z,1013.44
2017-11-17T06:00:04.301Z,1013.47
2017-11-17T06:00:44.849Z,1013.39
2017-11-17T06:01:25.337Z,1013.43
2017-11-17T06:02:05.940Z,1013.45
2017-11-17T06:02:46.504Z,1013.43
2017-11-17T06:03:27.034Z,1013.46
2017-11-17T06:04:07.609Z,1013.44
2017-11-17T06:04:48.103Z,1013.44
2017-11-17T06:05:28.662Z,1013.43
2017-11-17T06:06:09.408Z,1013.45
2017-11-17T06:06:50.041Z,1013.43
2017-11-17T06:07:30.513Z,1013.42
2017-11-17T06:08:11.027Z,1013.38
2017-11-17T06:08:51.605Z,1013.42
2017-11-17T06:09:32.090Z,1013.4
2017-11-17T06:10:12.641Z,1013.42
2017-11-17T06:10:53.219Z,1013.45
2017-11-17T06:11:33.744Z,1013.42
2017-11-17T06:12:14.316Z,1013.39
2017-11-17T06:12:54.851Z,1013.41
2017-11-17T06:13:35.364Z,1013.42
2017-11-17T06:14:15.920Z,1013.39
2017-11-17T06:14:56.479Z,1013.35
2017-11-17T06:15:36.987Z,1013.37
2017-11-17T06:16:17.539Z,1013.39
2017-11-17T06:16:58.060Z,1013.38
2017-11-17T06:17:38.613Z,1013.38
2017-11-17T06:18:19.214Z,1013.36
2017-11-17T06:18:59.737Z,1013.36
2017-11-17T06:19:40.294Z,1013.41
2017-11-17T06:20:21.195Z,1013.38
2017-11-17T06:21:01.701Z,1013.37
2017-11-17T06:21:42.236Z,1013.37
2017-11-17T06:22:22.765Z,1013.4
2017-11-17T06:23:03.384Z,1013.42
2017-11-17T06:23:43.913Z,1013.46
2017-11-17T06:24:24.422Z,1013.38
2017-11-17T06:25:04.942Z,1013.4
2017-11-17T06:25:45.461Z,1013.4
2017-11-17T06:26:26.046Z,1013.38
2017-11-17T06:27:06.569Z,1013.44
2017-11-17T06:27:47.099Z,1013.4
2017-11-17T06:28:27.668Z,1013.42
2017-11-17T06:29:08.222Z,1013.4
2017-11-17T06:29:48.750Z,1013.38
2017-11-17T06:30:29.298Z,1013.4
2017-11-17T06:31:09.863Z,1013.35
2017-11-17T06:31:50.397Z,1013.35
2017-11-17T06:32:30.918Z,1013.35
2017-11-17T06:33:11.502Z,1013.38
2017-11-17T06:33:51.994Z,1013.35
2017-11-17T06:34:32.559Z,1013.39
2017-11-17T06:35:13.155Z,1013.39
2017-11-17T06:35:53.866Z,1013.33
2017-11-17T06:36:34.441Z,1013.37
2017-11-17T06:37:14.942Z,1013.37
2017-11-17T06:39:28.697Z,1013.37
2017-11-17T06:40:09.235Z,1013.4
2017-11-17T06:40:49.781Z,1013.46
2017-11-17T06:41:30.522Z,1013.4
2017-11-17T06:42:10.865Z,1013.42
2017-11-17T06:42:51.477Z,1013.42
2017-11-17T06:43:32.024Z,1013.47
2017-11-17T06:44:12.554Z,1013.43
2017-11-17T06:44:53.133Z,1013.42
2017-11-17T06:45:33.688Z,1013.41
2017-11-17T06:46:14.192Z,1013.51
2017-11-17T06:46:54.757Z,1013.48
2017-11-17T06:47:35.277Z,1013.44
2017-11-17T06:48:15.800Z,1013.47
2017-11-17T06:48:56.379Z,1013.46
2017-11-17T06:49:36.982Z,1013.48
2017-11-17T06:50:17.501Z,1013.45
2017-11-17T06:50:58.141Z,1013.46
2017-11-17T06:51:39.283Z,1013.48
2017-11-17T06:52:19.213Z,1013.46
2017-11-17T06:52:59.767Z,1013.48
2017-11-17T06:53:40.411Z,1013.51
2017-11-17T06:54:20.924Z,1013.49
2017-11-17T06:55:01.510Z,1013.53
2017-11-17T06:55:42.171Z,1013.58
2017-11-17T06:56:22.749Z,1013.58
2017-11-17T06:57:03.249Z,1013.56
2017-11-17T06:57:43.823Z,1013.53
2017-11-17T06:58:25.111Z,1013.56
2017-11-17T06:59:06.517Z,1013.57
2017-11-17T06:59:47.401Z,1013.54
2017-11-17T07:00:29.298Z,1013.57
2017-11-17T07:01:09.884Z,1013.56
2017-11-17T07:01:50.439Z,1013.52
2017-11-17T07:02:31.023Z,1013.51
2017-11-17T07:03:11.549Z,1013.54
2017-11-17T07:03:52.697Z,1013.53
2017-11-17T07:04:33.919Z,1013.5
2017-11-17T07:05:21.182Z,1013.51
2017-11-17T07:06:01.782Z,1013.49
2017-11-17T07:06:48.996Z,1013.5
2017-11-17T07:36:06.619Z,1013.86
2017-11-17T07:36:47.887Z,1013.82
2017-11-17T07:37:28.507Z,1013.85
2017-11-17T07:38:09.037Z,1013.83
2017-11-17T07:38:49.568Z,1013.77
2017-11-17T07:39:30.131Z,1013.78
2017-11-17T07:40:10.955Z,1013.75
2017-11-17T07:40:51.611Z,1013.79
2017-11-17T07:41:32.369Z,1013.79
2017-11-17T07:42:13.050Z,1013.8
2017-11-17T07:42:53.570Z,1013.77
2017-11-17T07:43:34.643Z,1013.8
2017-11-17T07:44:14.652Z,1013.81
2017-11-17T07:44:55.268Z,1013.84
2017-11-17T07:45:36.065Z,1013.82
2017-11-17T07:46:16.627Z,1013.81
2017-11-17T07:46:57.151Z,1013.8
2017-11-17T07:47:37.705Z,1013.86
2017-11-17T07:48:18.203Z,1013.83
2017-11-17T07:48:58.832Z,1013.81
2017-11-17T07:49:39.463Z,1013.83
2017-11-17T07:50:21.125Z,1013.79
2017-11-17T07:51:01.667Z,1013.83
2017-11-17T07:51:43.384Z,1013.81
2017-11-17T07:52:24.149Z,1013.88
2017-11-17T07:53:04.719Z,1013.87
2017-11-17T07:53:45.429Z,1013.84
2017-11-17T07:54:25.935Z,1013.87
2017-11-17T07:55:07.184Z,1013.91
2017-11-17T07:55:48.268Z,1013.9
2017-11-17T07:56:28.867Z,1013.92
2017-11-17T07:57:09.434Z,1013.93
2017-11-17T07:57:50.622Z,1013.91
2017-11-17T07:58:31.286Z,1013.91
2017-11-17T07:59:12.776Z,1013.97
2017-11-17T07:59:56.079Z,1013.95
2017-11-17T08:00:36.352Z,1013.96
2017-11-17T08:01:17.060Z,1013.97
2017-11-17T08:01:57.745Z,1014.01
2017-11-17T08:02:38.334Z,1013.98
2017-11-17T08:03:18.992Z,1013.95
2017-11-17T08:04:00.454Z,1014
2017-11-17T08:04:41.158Z,1013.98
2017-11-17T08:05:21.879Z,1013.98
2017-11-17T08:06:02.489Z,1013.96
2017-11-17T08:06:43.032Z,1014
2017-11-17T08:07:23.579Z,1013.99
2017-11-17T08:08:04.267Z,1013.94
2017-11-17T08:08:47.131Z,1013.92
2017-11-17T08:09:27.567Z,1013.93
2017-11-17T08:10:08.155Z,1013.95
2017-11-17T08:10:55.608Z,1013.94
2017-11-17T08:11:36.165Z,1013.95
2017-11-17T08:12:17.755Z,1013.89
2017-11-17T08:12:58.250Z,1013.96
2017-11-17T08:13:38.775Z,1013.93
2017-11-17T08:14:20.164Z,1013.91
2017-11-17T08:14:59.964Z,1013.89
2017-11-17T08:15:40.517Z,1013.92
2017-11-17T08:16:21.083Z,1013.87
2017-11-17T08:17:01.618Z,1013.92
2017-11-17T08:17:42.190Z,1013.89
2017-11-17T08:18:22.880Z,1013.93
2017-11-17T08:19:03.705Z,1013.94
2017-11-17T08:19:44.138Z,1013.92
2017-11-17T08:20:24.666Z,1013.91
2017-11-17T08:21:05.165Z,1013.92
2017-11-17T08:21:45.692Z,1013.92
2017-11-17T08:22:26.303Z,1013.83
2017-11-17T08:23:07.358Z,1013.88
2017-11-17T08:23:47.967Z,1013.93
2017-11-17T08:24:28.623Z,1013.93
2017-11-17T08:25:09.102Z,1013.95
2017-11-17T08:25:49.786Z,1013.96
2017-11-17T08:26:30.385Z,1014.01
2017-11-17T08:27:10.978Z,1013.98
2017-11-17T08:27:52.917Z,1014
2017-11-17T08:28:33.805Z,1014.05
2017-11-17T08:29:14.428Z,1014.11
2017-11-17T08:29:55.021Z,1014.11
2017-11-17T08:30:35.604Z,1014.04
2017-11-17T08:31:16.111Z,1014.09
2017-11-17T08:31:56.716Z,1014.05
2017-11-17T08:32:37.214Z,1014.09
2017-11-17T08:33:18.133Z,1014.09
2017-11-17T08:33:58.884Z,1014.04
2017-11-17T08:34:39.758Z,1014.11
2017-11-17T08:35:20.291Z,1014.12
2017-11-17T08:36:00.876Z,1014.12
2017-11-17T08:36:41.404Z,1014.13
2017-11-17T08:37:21.944Z,1014.13
2017-11-17T08:38:03.311Z,1014.17
2017-11-17T08:38:43.912Z,1014.13
2017-11-17T08:39:24.662Z,1014.21
2017-11-17T08:40:05.203Z,1014.25
2017-11-17T08:40:45.818Z,1014.24
2017-11-17T08:41:26.550Z,1014.16
2017-11-17T08:42:07.117Z,1014.18
2017-11-17T08:42:47.656Z,1014.19
2017-11-17T08:43:28.337Z,1014.18